Pagrindinis puslapis
METAR-TAF:

METAR-TAF

Oro uostai :

Korientesas, Argentina

platuma: 27-27S, ilguma: 058-46W, Aukštis: 62 m

Dabartinis oras

Ataskaita buvo paskelbta 38 minutes, ne 10:00 UTC
Vėjas 5 kt iš Šiaurės/Šiaurės Vakarų
Temperatūra 22°C
Drėgmė 88%
Slėgis 1011 hPa
Matomumas 10 km arba daugiau
nėra debesų žemiau 1500 m ir nėra kamuolinių lietaus debesų

METAR: SARC 091000Z 34005KT CAVOK 22/20 Q1011

Laikas: 07:38 (10:38 UTC)

Prognozė

Ataskaita buvo paskelbta 12 valandos ir 43 minutes, ne 21:55 UTC
Prognozė galioja nuo 07 metu 22 UTC su 08 metu 18 UTC
Vėjas 10 kt iš Rytų
Matomumas: 5000 m
dūmai
Tapsmas
nuo 07 metu 24 UTC su 08 metu 01 UTC
Matomumas: 8000 m

TAF: SARC 072155Z 0722/0818 09010KT 5000 FU NSC TX34/0818Z TN19/0809Z BECMG 0724/0801 8000 NSC

Orai ataskaitas ir orų prognozės (METAR, TAF).

turimą stotys yra geltonos ir raudonos taškus žemėlapyje.

Perkelti pele per norėdami pamatyti stoties vardą.

Tada spustelėkite, norėdami matyti oro stebėjimo ir prognozės.

Norėdami pakeisti žemėlapį: spustelėkite ant žalios mygtukų su juodo kryžiaus žemyn,; žalią mygtuką su brūkšneliu, jei norite nutolinti; arba žalių rodyklių gretimoms žemėlapius.


METAR-TAF: